Time;durP1;ratioP1;P1;durP2;ratioP2;P2;SDS_P1;SDS_P2;PMS_P1;PMS_P2;Temp;Humidity;BMP_temperature;BMP_pressure;BME280_temperature;BME280_humidity;BME280_pressure;Samples;Min_cycle;Max_cycle;Signal;HPM_P1;HPM_P2
2022/10/05 00:00:49;;;;;;;9.55;5.43;;;17.10;97.70;;;;;;5018895;28;20031;-87
2022/10/05 00:03:15;;;;;;;9.10;5.47;;;17.10;97.70;;;;;;5018574;28;20128;-87
2022/10/05 00:05:43;;;;;;;10.32;5.00;;;17.10;97.70;;;;;;5018592;28;20044;-87
2022/10/05 00:08:09;;;;;;;8.52;5.55;;;17.10;97.80;;;;;;5002401;28;20393;-86
2022/10/05 00:10:35;;;;;;;9.05;5.00;;;17.00;97.80;;;;;;5036069;28;20029;-87
2022/10/05 00:13:01;;;;;;;8.35;5.40;;;17.10;97.90;;;;;;5035889;28;20104;-87
2022/10/05 00:15:28;;;;;;;9.38;5.00;;;17.10;98.00;;;;;;5001807;28;20025;-86
2022/10/05 00:17:54;;;;;;;6.65;4.78;;;17.10;98.00;;;;;;5034463;28;20434;-90
2022/10/05 00:20:21;;;;;;;11.88;5.30;;;17.10;98.00;;;;;;5018361;28;20029;-87
2022/10/05 00:22:48;;;;;;;10.88;5.45;;;17.00;98.00;;;;;;5035681;28;20036;-87
2022/10/05 00:25:19;;;;;;;9.57;5.15;;;17.00;98.10;;;;;;5017869;28;20437;-87
2022/10/05 00:27:52;;;;;;;8.55;5.32;;;17.00;98.10;;;;;;5017827;28;20033;-87
2022/10/05 00:30:20;;;;;;;8.68;5.38;;;17.00;98.20;;;;;;5017495;28;20155;-86
2022/10/05 00:32:46;;;;;;;8.00;5.15;;;17.00;98.30;;;;;;5017722;28;20025;-86
2022/10/05 00:35:13;;;;;;;9.32;5.68;;;17.00;98.30;;;;;;5034220;28;20041;-87
2022/10/05 00:37:39;;;;;;;8.95;5.50;;;17.00;98.40;;;;;;5001355;28;20076;-86
2022/10/05 00:40:34;;;;;;;11.18;5.85;;;17.00;98.40;;;;;;5017511;28;20075;-89
2022/10/05 00:43:06;;;;;;;12.48;4.88;;;17.00;98.40;;;;;;5017179;28;20115;-86
2022/10/05 00:45:38;;;;;;;8.52;5.30;;;17.00;98.50;;;;;;5035396;28;20025;-86
2022/10/05 00:48:19;;;;;;;7.88;5.22;;;17.00;98.50;;;;;;5035384;28;20126;-87
2022/10/05 00:51:00;;;;;;;9.85;5.07;;;17.00;98.60;;;;;;5034060;28;20041;-87
2022/10/05 00:53:56;;;;;;;7.97;5.07;;;17.00;98.60;;;;;;5035047;28;20021;-87
2022/10/05 00:56:40;;;;;;;7.57;5.30;;;17.00;98.70;;;;;;5033234;28;20061;-87
2022/10/05 00:59:44;;;;;;;9.45;5.43;;;17.00;98.70;;;;;;5033915;28;20025;-87
2022/10/05 01:02:19;;;;;;;10.23;5.57;;;17.00;98.80;;;;;;5033637;28;20029;-87
2022/10/05 01:04:50;;;;;;;8.57;5.43;;;17.00;98.80;;;;;;5033679;28;20144;-87
2022/10/05 01:07:16;;;;;;;9.43;5.95;;;16.90;98.90;;;;;;5033680;28;20360;-87
2022/10/05 01:10:09;;;;;;;9.65;5.90;;;16.90;99.00;;;;;;5034603;28;20071;-85
2022/10/05 01:12:56;;;;;;;10.07;5.53;;;16.90;99.10;;;;;;5033540;28;20084;-87
2022/10/05 01:15:43;;;;;;;7.88;5.28;;;16.90;99.10;;;;;;5034629;28;20028;-86
2022/10/05 01:18:26;;;;;;;9.43;6.32;;;16.90;99.30;;;;;;5033371;28;20034;-86
2022/10/05 01:21:18;;;;;;;15.25;5.72;;;16.90;99.40;;;;;;5035107;28;20060;-87
2022/10/05 01:24:18;;;;;;;8.57;5.63;;;16.90;99.50;;;;;;5034573;28;20044;-86
2022/10/05 01:27:01;;;;;;;9.55;5.80;;;16.90;99.50;;;;;;4983169;28;20563;-87
2022/10/05 01:30:02;;;;;;;9.30;6.20;;;16.90;99.50;;;;;;5034264;28;20477;-86
2022/10/05 01:32:37;;;;;;;8.35;5.95;;;16.80;99.70;;;;;;5018169;28;20017;-86
2022/10/05 01:35:15;;;;;;;12.75;6.13;;;16.80;99.70;;;;;;5016776;28;20021;-88
2022/10/05 01:37:50;;;;;;;9.07;5.93;;;16.80;99.80;;;;;;5033396;28;20037;-87
2022/10/05 01:40:53;;;;;;;14.73;7.35;;;16.80;99.90;;;;;;5032906;28;20155;-86
2022/10/05 01:43:25;;;;;;;11.68;6.40;;;16.80;99.90;;;;;;5033006;28;20021;-87
2022/10/05 01:45:53;;;;;;;10.80;6.68;;;16.80;99.90;;;;;;5016576;28;20025;-87
2022/10/05 01:48:32;;;;;;;11.25;6.88;;;16.80;99.90;;;;;;5032932;28;20025;-86
2022/10/05 01:51:25;;;;;;;10.32;6.85;;;16.80;99.90;;;;;;5016548;28;20086;-87
2022/10/05 01:54:05;;;;;;;9.07;6.13;;;16.80;99.90;;;;;;5033315;28;20033;-87
2022/10/05 01:56:58;;;;;;;13.55;6.75;;;16.70;99.90;;;;;;5034216;28;20033;-87
2022/10/05 01:59:23;;;;;;;10.43;6.88;;;16.70;99.90;;;;;;5016328;28;20071;-86
2022/10/05 02:02:08;;;;;;;12.45;6.40;;;16.70;99.90;;;;;;5034137;28;20022;-87
2022/10/05 02:05:07;;;;;;;11.50;6.55;;;16.70;99.90;;;;;;5032872;28;20092;-87
2022/10/05 02:07:44;;;;;;;9.90;6.30;;;16.70;99.90;;;;;;5016301;28;20036;-87
2022/10/05 02:10:27;;;;;;;9.85;6.85;;;16.70;99.90;;;;;;5015832;28;20031;-87
2022/10/05 02:13:07;;;;;;;10.48;6.60;;;16.70;99.90;;;;;;5016239;28;20159;-87
2022/10/05 02:15:40;;;;;;;9.65;6.60;;;16.70;99.90;;;;;;5032766;28;20041;-87
2022/10/05 02:18:12;;;;;;;10.65;6.95;;;16.60;99.90;;;;;;5034004;28;20109;-85
2022/10/05 02:20:40;;;;;;;13.18;7.78;;;16.60;99.90;;;;;;5033653;28;20053;-87
2022/10/05 02:23:15;;;;;;;10.75;7.03;;;16.50;99.90;;;;;;5016560;28;20026;-86
2022/10/05 02:25:45;;;;;;;9.23;6.25;;;16.50;99.90;;;;;;5016143;28;20412;-86
2022/10/05 02:28:28;;;;;;;12.83;6.87;;;16.50;99.90;;;;;;5016091;28;20033;-88
2022/10/05 02:31:04;;;;;;;14.50;7.47;;;16.50;99.90;;;;;;5033057;28;20652;-86
2022/10/05 02:33:32;;;;;;;10.60;7.35;;;16.50;99.90;;;;;;5016353;28;20029;-87
2022/10/05 02:36:22;;;;;;;11.77;7.13;;;16.40;99.90;;;;;;5000136;28;20018;-87
2022/10/05 02:39:02;;;;;;;11.23;7.68;;;16.40;99.90;;;;;;5016135;28;20029;-87
2022/10/05 02:41:38;;;;;;;10.43;7.38;;;16.30;99.90;;;;;;5032074;28;20470;-87
2022/10/05 02:44:13;;;;;;;12.32;7.50;;;16.30;99.90;;;;;;5033698;28;20026;-86
2022/10/05 02:46:40;;;;;;;13.65;7.80;;;16.20;99.90;;;;;;5034172;28;20592;-87
2022/10/05 02:49:09;;;;;;;12.93;7.70;;;16.20;99.90;;;;;;5032712;28;20108;-87
2022/10/05 02:51:40;;;;;;;11.10;7.35;;;16.20;99.90;;;;;;5033826;28;20030;-87
2022/10/05 02:54:28;;;;;;;12.55;7.90;;;16.10;99.90;;;;;;5053581;28;20018;-87
2022/10/05 02:57:03;;;;;;;9.65;7.50;;;16.10;99.90;;;;;;5057653;28;20013;-88
2022/10/05 02:59:41;;;;;;;14.43;8.52;;;16.10;99.90;;;;;;5028254;28;20024;-88
2022/10/05 03:02:28;;;;;;;10.80;7.60;;;16.10;99.90;;;;;;5029886;28;20022;-86
2022/10/05 03:04:56;;;;;;;13.63;8.32;;;16.10;99.90;;;;;;5034068;28;20048;-86
2022/10/05 03:07:48;;;;;;;13.68;7.68;;;16.10;99.90;;;;;;5037917;28;20393;-87
2022/10/05 03:10:46;;;;;;;14.18;8.18;;;16.00;99.90;;;;;;5034145;28;20026;-87
2022/10/05 03:13:34;;;;;;;13.77;8.63;;;16.00;99.90;;;;;;5032228;28;20405;-87
2022/10/05 03:16:21;;;;;;;13.40;8.07;;;16.00;99.90;;;;;;5033376;28;20075;-87
2022/10/05 03:19:10;;;;;;;11.32;7.78;;;16.00;99.90;;;;;;5033404;28;20068;-88
2022/10/05 03:21:55;;;;;;;11.63;8.68;;;16.00;99.90;;;;;;5019112;28;20355;-87
2022/10/05 03:24:37;;;;;;;11.57;7.95;;;16.00;99.90;;;;;;5036935;28;20018;-87
2022/10/05 03:27:14;;;;;;;14.88;7.97;;;16.00;99.90;;;;;;5037101;28;20104;-87
2022/10/05 03:29:47;;;;;;;15.20;8.60;;;16.00;99.90;;;;;;5035452;28;20030;-88
2022/10/05 03:32:40;;;;;;;12.52;8.68;;;16.10;99.90;;;;;;5036896;28;20033;-87
2022/10/05 03:35:29;;;;;;;12.23;7.68;;;16.10;99.90;;;;;;5036470;28;20522;-86
2022/10/05 03:38:12;;;;;;;13.98;8.20;;;16.10;99.90;;;;;;5036577;28;20034;-87
2022/10/05 03:40:50;;;;;;;11.32;8.60;;;16.10;99.90;;;;;;5035312;28;20085;-86
2022/10/05 03:43:44;;;;;;;13.68;8.57;;;16.10;99.90;;;;;;5035282;28;20018;-89
2022/10/05 03:46:28;;;;;;;13.65;8.60;;;16.00;99.90;;;;;;5036504;28;20052;-87
2022/10/05 03:49:12;;;;;;;16.42;8.18;;;16.00;99.90;;;;;;5035395;28;20027;-87
2022/10/05 03:52:08;;;;;;;10.68;7.60;;;16.10;99.90;;;;;;5018859;28;20442;-87
2022/10/05 03:54:40;;;;;;;14.93;8.43;;;16.00;99.90;;;;;;4992401;28;20041;-86
2022/10/05 03:57:16;;;;;;;11.90;7.65;;;16.00;99.90;;;;;;5018634;28;20037;-86
2022/10/05 04:00:06;;;;;;;12.07;7.57;;;16.00;99.90;;;;;;5018630;28;20034;-87
2022/10/05 04:02:42;;;;;;;12.18;7.20;;;16.10;99.90;;;;;;5036256;28;20073;-87
2022/10/05 04:05:08;;;;;;;10.85;7.20;;;16.00;99.90;;;;;;5034931;28;20354;-86
2022/10/05 04:07:55;;;;;;;13.05;7.18;;;16.10;99.90;;;;;;5035849;28;20048;-87
2022/10/05 04:10:24;;;;;;;12.07;7.13;;;16.10;99.90;;;;;;5018287;28;20041;-87
2022/10/05 04:13:05;;;;;;;10.90;7.72;;;16.10;99.90;;;;;;5035044;28;20110;-87
2022/10/05 04:15:41;;;;;;;11.88;8.20;;;16.10;99.90;;;;;;5032578;28;20060;-87
2022/10/05 04:18:49;;;;;;;10.80;7.15;;;16.10;99.90;;;;;;5034906;28;20038;-86
2022/10/05 04:21:22;;;;;;;9.95;6.90;;;16.10;99.90;;;;;;4958684;28;20031;-87
2022/10/05 04:23:59;;;;;;;11.23;7.80;;;16.10;99.90;;;;;;4958804;28;20034;-86
2022/10/05 04:26:34;;;;;;;11.25;7.50;;;16.10;99.90;;;;;;4995027;28;20037;-87
2022/10/05 04:29:03;;;;;;;10.40;7.22;;;16.10;99.90;;;;;;5035895;28;20039;-86
2022/10/05 04:31:50;;;;;;;12.15;7.90;;;16.10;99.90;;;;;;5034982;28;20026;-87
2022/10/05 04:34:36;;;;;;;14.43;7.70;;;16.10;99.90;;;;;;5018314;28;20116;-87
2022/10/05 04:37:07;;;;;;;10.95;6.78;;;16.10;99.90;;;;;;4997722;28;20450;-87
2022/10/05 04:39:43;;;;;;;11.20;6.97;;;16.10;99.90;;;;;;5018175;28;20508;-87
2022/10/05 04:42:33;;;;;;;11.02;7.15;;;16.10;99.90;;;;;;5035949;28;20053;-87
2022/10/05 04:45:37;;;;;;;12.75;6.63;;;16.10;99.90;;;;;;5018342;28;20021;-87
2022/10/05 04:48:33;;;;;;;11.05;7.15;;;16.20;99.90;;;;;;4985812;28;20069;-87
2022/10/05 04:51:35;;;;;;;11.52;7.70;;;16.10;99.90;;;;;;5014908;28;20470;-87
2022/10/05 04:54:28;;;;;;;9.77;6.95;;;16.10;99.90;;;;;;5033110;28;20038;-86
2022/10/05 04:56:55;;;;;;;10.48;6.95;;;16.10;99.90;;;;;;5015080;28;20025;-87
2022/10/05 04:59:54;;;;;;;13.68;7.30;;;16.10;99.90;;;;;;5015282;28;20454;-88
2022/10/05 05:02:38;;;;;;;11.13;7.18;;;16.10;99.90;;;;;;5014202;28;20021;-86
2022/10/05 05:05:36;;;;;;;11.27;6.60;;;16.10;99.90;;;;;;5015806;28;20112;-87
2022/10/05 05:08:34;;;;;;;9.38;6.72;;;16.10;99.90;;;;;;5013415;28;20022;-90
2022/10/05 05:11:14;;;;;;;11.00;6.78;;;16.10;99.90;;;;;;5013582;28;20037;-89
2022/10/05 05:13:49;;;;;;;11.03;6.47;;;16.10;99.90;;;;;;5014690;28;20072;-88
2022/10/05 05:16:36;;;;;;;10.85;6.22;;;16.10;99.90;;;;;;5015142;28;20092;-88
2022/10/05 05:19:13;;;;;;;9.88;6.40;;;16.10;99.90;;;;;;4997518;28;20034;-86
2022/10/05 05:21:48;;;;;;;11.38;7.28;;;16.10;99.90;;;;;;5013705;28;20049;-87
2022/10/05 05:24:40;;;;;;;10.90;6.82;;;16.10;99.90;;;;;;5013738;28;20057;-87
2022/10/05 05:27:25;;;;;;;10.27;6.70;;;16.10;99.90;;;;;;5039654;28;20026;-87
2022/10/05 05:30:11;;;;;;;16.15;7.47;;;16.00;99.90;;;;;;4997400;28;20053;-88
2022/10/05 05:33:01;;;;;;;14.05;7.07;;;16.00;99.90;;;;;;5013604;28;20028;-87
2022/10/05 05:35:51;;;;;;;10.98;7.38;;;16.00;99.90;;;;;;4997349;28;20030;-88
2022/10/05 05:38:44;;;;;;;11.10;7.20;;;16.00;99.90;;;;;;5013408;28;20129;-88
2022/10/05 05:41:32;;;;;;;11.95;7.32;;;16.00;99.90;;;;;;5013090;28;20075;-88
2022/10/05 05:44:16;;;;;;;13.85;6.95;;;15.90;99.90;;;;;;4995873;28;20025;-87
2022/10/05 05:46:50;;;;;;;11.90;7.53;;;15.90;99.90;;;;;;5013241;28;20474;-87
2022/10/05 05:49:44;;;;;;;11.90;7.18;;;15.90;99.90;;;;;;5014225;28;20030;-87
2022/10/05 05:52:24;;;;;;;10.40;6.93;;;15.80;99.90;;;;;;5014320;28;20033;-87
2022/10/05 05:54:57;;;;;;;10.30;7.20;;;15.90;99.90;;;;;;4996831;28;20022;-88
2022/10/05 05:57:29;;;;;;;10.82;6.90;;;15.80;99.90;;;;;;5014450;28;20038;-87
2022/10/05 06:00:06;;;;;;;14.98;7.75;;;15.90;99.90;;;;;;4996554;28;20038;-86
2022/10/05 06:02:59;;;;;;;10.50;6.78;;;15.80;99.90;;;;;;5014054;28;20088;-88
2022/10/05 06:05:37;;;;;;;11.50;6.88;;;15.80;99.90;;;;;;4996489;28;20038;-88
2022/10/05 06:08:17;;;;;;;13.57;6.70;;;15.80;99.90;;;;;;5013122;28;20101;-88
2022/10/05 06:10:50;;;;;;;8.23;6.03;;;15.80;99.90;;;;;;4996749;28;20024;-87
2022/10/05 06:13:25;;;;;;;9.73;6.32;;;15.80;99.90;;;;;;5013670;28;20120;-87
2022/10/05 06:16:08;;;;;;;10.40;6.65;;;15.80;99.90;;;;;;4996548;28;20033;-87
2022/10/05 06:18:37;;;;;;;12.30;6.45;;;15.80;99.90;;;;;;5012721;28;20030;-89
2022/10/05 06:21:15;;;;;;;9.38;5.97;;;15.90;99.90;;;;;;4997068;28;20466;-88
2022/10/05 06:23:47;;;;;;;9.98;6.13;;;15.90;99.90;;;;;;5014240;28;20026;-87
2022/10/05 06:26:23;;;;;;;8.32;5.40;;;15.90;99.90;;;;;;4996611;28;20030;-87
2022/10/05 06:28:59;;;;;;;8.82;5.13;;;15.90;99.90;;;;;;5013193;28;20045;-87
2022/10/05 06:31:40;;;;;;;9.82;6.57;;;15.90;99.90;;;;;;5017922;28;20234;-88
2022/10/05 06:34:13;;;;;;;;;;;16.00;99.90;;;;;;5029985;28;20045;-87
2022/10/05 06:37:04;;;;;;;8.68;5.80;;;15.90;99.90;;;;;;5029606;28;19905;-88
2022/10/05 06:40:09;;;;;;;10.43;6.00;;;15.90;99.90;;;;;;5019693;28;20037;-87
2022/10/05 06:42:40;;;;;;;10.90;6.00;;;15.90;99.90;;;;;;5028868;28;20038;-87
2022/10/05 06:45:07;;;;;;;;;;;15.90;99.90;;;;;;5024905;28;20057;-87
2022/10/05 06:48:07;;;;;;;11.13;6.07;;;15.90;99.90;;;;;;5014599;28;20368;-87
2022/10/05 06:50:41;;;;;;;10.32;6.10;;;15.90;99.90;;;;;;5012645;28;20029;-87
2022/10/05 06:53:44;;;;;;;16.33;6.40;;;15.90;99.90;;;;;;5014741;28;20026;-87
2022/10/05 06:56:37;;;;;;;11.43;6.10;;;15.90;99.90;;;;;;5016205;28;20030;-87
2022/10/05 06:59:14;;;;;;;11.65;5.70;;;15.90;99.90;;;;;;5009483;28;20124;-87
2022/10/05 07:02:07;;;;;;;11.57;6.28;;;15.90;99.90;;;;;;5017835;28;20061;-88
2022/10/05 07:05:00;;;;;;;8.60;5.43;;;15.90;99.90;;;;;;5017735;28;20026;-87
2022/10/05 07:07:41;;;;;;;10.40;5.85;;;15.90;99.90;;;;;;5017902;28;20036;-87
2022/10/05 07:10:56;;;;;;;10.38;5.95;;;15.90;99.90;;;;;;5017940;28;20030;-87
2022/10/05 07:13:31;;;;;;;9.20;5.60;;;15.90;99.90;;;;;;4956363;28;20037;-88
2022/10/05 07:16:34;;;;;;;8.45;5.75;;;15.90;99.90;;;;;;5016014;28;20030;-87
2022/10/05 07:19:21;;;;;;;8.82;5.50;;;15.90;99.90;;;;;;5017471;28;20034;-87
2022/10/05 07:22:24;;;;;;;10.00;5.30;;;15.90;99.90;;;;;;5016038;28;20033;-87
2022/10/05 07:25:00;;;;;;;9.02;5.55;;;15.90;99.90;;;;;;5015739;28;20474;-88
2022/10/05 07:27:32;;;;;;;9.65;5.68;;;15.90;99.90;;;;;;5016965;28;20030;-87
2022/10/05 07:30:02;;;;;;;9.38;5.40;;;15.90;99.90;;;;;;5000049;28;20026;-92
2022/10/05 07:32:48;;;;;;;12.03;5.40;;;15.90;99.90;;;;;;5001151;28;20378;-93
2022/10/05 07:38:51;;;;;;;10.60;5.38;;;15.90;99.90;;;;;;5017969;28;20057;-91
2022/10/05 07:41:44;;;;;;;7.85;4.85;;;16.00;99.90;;;;;;4999882;28;20413;-91
2022/10/05 07:44:17;;;;;;;7.18;5.30;;;16.00;99.90;;;;;;5000168;28;20022;-91
2022/10/05 07:46:50;;;;;;;9.25;5.40;;;16.00;99.90;;;;;;5001313;28;20108;-89
2022/10/05 07:49:35;;;;;;;10.25;5.90;;;16.00;99.90;;;;;;5032209;28;20026;-88
2022/10/05 07:52:22;;;;;;;10.07;5.47;;;16.00;99.90;;;;;;5017356;28;20030;-89
2022/10/05 07:54:59;;;;;;;7.38;5.40;;;16.00;99.90;;;;;;5016094;28;20478;-89
2022/10/05 07:57:25;;;;;;;9.10;5.78;;;16.00;99.90;;;;;;5015604;28;20040;-90
2022/10/05 08:00:03;;;;;;;9.20;5.15;;;16.00;99.90;;;;;;5016666;28;20026;-90
2022/10/05 08:02:51;;;;;;;8.75;4.90;;;16.00;99.90;;;;;;5017101;28;20029;-89
2022/10/05 08:05:29;;;;;;;7.88;5.10;;;16.00;99.90;;;;;;5018239;28;20025;-95
2022/10/05 08:08:30;;;;;;;8.18;4.70;;;16.10;99.90;;;;;;4998629;28;20026;-92
2022/10/05 08:11:10;;;;;;;6.80;4.50;;;16.10;99.90;;;;;;5015989;28;20030;-91
2022/10/05 08:13:35;;;;;;;5.45;3.83;;;16.10;99.90;;;;;;5017171;28;20033;-91
2022/10/05 08:16:11;;;;;;;7.68;4.00;;;16.10;99.90;;;;;;5015790;28;20026;-92
2022/10/05 08:19:04;;;;;;;6.18;3.90;;;16.10;99.90;;;;;;5017246;28;20041;-93
2022/10/05 08:21:35;;;;;;;8.50;3.38;;;16.20;99.90;;;;;;5015705;28;20117;-93
2022/10/05 08:24:21;;;;;;;8.10;3.50;;;16.20;99.90;;;;;;5016059;28;20026;-91
2022/10/05 08:27:13;;;;;;;4.60;3.05;;;16.30;99.90;;;;;;5016818;28;20069;-89
2022/10/05 08:29:46;;;;;;;5.97;3.25;;;16.20;99.90;;;;;;4998286;28;20026;-87
2022/10/05 08:32:23;;;;;;;5.60;3.17;;;16.30;99.90;;;;;;5015611;28;20030;-87
2022/10/05 08:35:02;;;;;;;5.05;3.15;;;16.30;99.90;;;;;;5015864;28;20060;-92
2022/10/05 08:37:38;;;;;;;4.70;3.20;;;16.40;99.90;;;;;;4998739;28;20482;-88
2022/10/05 08:40:44;;;;;;;5.85;3.00;;;16.40;99.90;;;;;;4998162;28;20018;-91
2022/10/05 08:43:52;;;;;;;6.18;3.33;;;16.40;99.90;;;;;;4992579;28;20063;-89
2022/10/05 08:46:52;;;;;;;6.10;3.38;;;16.50;99.90;;;;;;5014990;28;20057;-89
2022/10/05 08:49:20;;;;;;;4.93;3.17;;;16.50;99.90;;;;;;5016117;28;20485;-88
2022/10/05 08:52:24;;;;;;;6.07;3.53;;;16.50;99.90;;;;;;5015918;28;20022;-87
2022/10/05 08:55:08;;;;;;;5.25;3.50;;;16.60;99.90;;;;;;4998765;28;20065;-88
2022/10/05 08:58:09;;;;;;;6.38;3.58;;;16.60;99.90;;;;;;5014459;28;20048;-88
2022/10/05 09:01:05;;;;;;;6.85;3.20;;;16.60;99.90;;;;;;5014276;28;20026;-88
2022/10/05 09:03:49;;;;;;;8.27;3.35;;;16.70;99.90;;;;;;4998024;28;20032;-88
2022/10/05 09:06:22;;;;;;;6.30;3.50;;;16.70;99.90;;;;;;5014138;28;20040;-88
2022/10/05 09:09:23;;;;;;;7.70;3.80;;;16.80;99.90;;;;;;4997775;28;20022;-88
2022/10/05 09:12:20;;;;;;;7.30;4.00;;;16.80;99.90;;;;;;4997845;28;20371;-88
2022/10/05 09:15:07;;;;;;;6.38;3.83;;;16.80;99.90;;;;;;5014375;28;20482;-86
2022/10/05 09:17:56;;;;;;;8.50;3.50;;;16.80;99.90;;;;;;5015069;28;20030;-87
2022/10/05 09:20:40;;;;;;;5.63;3.97;;;16.90;99.90;;;;;;4977350;28;20149;-88
2022/10/05 09:23:32;;;;;;;6.78;3.38;;;16.90;99.90;;;;;;5014679;28;20056;-86
2022/10/05 09:26:26;;;;;;;5.93;3.50;;;17.00;99.90;;;;;;5013624;28;20029;-87
2022/10/05 09:29:28;;;;;;;9.18;4.68;;;17.00;99.90;;;;;;5013601;28;20532;-88
2022/10/05 09:32:29;;;;;;;7.55;3.97;;;17.00;99.90;;;;;;5014176;28;20466;-89
2022/10/05 09:34:57;;;;;;;8.48;3.90;;;17.10;99.90;;;;;;5013812;28;20029;-89
2022/10/05 09:37:37;;;;;;;8.45;3.53;;;17.10;99.90;;;;;;5013858;28;20429;-89
2022/10/05 09:40:16;;;;;;;6.85;3.58;;;17.20;99.90;;;;;;5014486;28;20128;-88
2022/10/05 09:42:44;;;;;;;8.40;3.80;;;17.20;99.90;;;;;;5013627;28;20026;-88
2022/10/05 09:45:24;;;;;;;8.77;3.45;;;17.20;99.90;;;;;;5014824;28;20030;-89
2022/10/05 09:48:20;;;;;;;6.45;3.42;;;17.30;99.90;;;;;;5015228;28;20025;-88
2022/10/05 09:51:22;;;;;;;5.63;3.45;;;17.30;99.90;;;;;;5014596;28;20480;-91
2022/10/05 09:54:08;;;;;;;;;;;17.30;99.90;;;;;;5014715;28;20532;-90
2022/10/05 09:56:36;;;;;;;6.47;3.70;;;17.40;99.90;;;;;;5014273;28;19912;-87
2022/10/05 09:59:33;;;;;;;6.13;3.22;;;17.40;99.90;;;;;;5018487;28;20038;-95
2022/10/05 10:02:26;;;;;;;6.55;3.10;;;17.40;99.90;;;;;;5021063;28;20477;-89
2022/10/05 10:05:28;;;;;;;5.68;3.45;;;17.50;99.90;;;;;;5014136;28;20022;-88
2022/10/05 10:08:13;;;;;;;8.10;3.22;;;17.50;99.90;;;;;;5013057;28;20390;-87
2022/10/05 10:10:53;;;;;;;6.68;3.42;;;17.50;99.90;;;;;;5017015;28;20037;-86
2022/10/05 10:13:50;;;;;;;7.88;3.30;;;17.60;99.90;;;;;;5020110;28;20033;-88
2022/10/05 10:16:25;;;;;;;5.72;3.45;;;17.60;99.90;;;;;;5026481;28;20493;-89
2022/10/05 10:19:03;;;;;;;9.98;3.20;;;17.70;99.90;;;;;;5019287;28;20545;-87
2022/10/05 10:21:59;;;;;;;9.73;3.45;;;17.70;99.90;;;;;;5016513;28;20405;-87
2022/10/05 10:24:46;;;;;;;7.38;3.30;;;17.80;99.90;;;;;;5023872;28;20041;-87
2022/10/05 10:27:26;;;;;;;8.20;3.38;;;17.90;99.90;;;;;;5014749;28;20118;-86
2022/10/05 10:30:05;;;;;;;4.32;2.88;;;17.90;99.90;;;;;;5014078;28;20377;-88
2022/10/05 10:33:16;;;;;;;6.30;2.88;;;18.00;99.90;;;;;;5017225;28;20032;-87
2022/10/05 10:35:59;;;;;;;9.18;3.00;;;18.10;99.90;;;;;;4985073;28;20413;-87
2022/10/05 10:38:34;;;;;;;4.15;2.72;;;18.20;99.90;;;;;;5000270;28;20135;-90
2022/10/05 10:41:24;;;;;;;8.75;3.35;;;18.20;99.90;;;;;;4999954;28;20083;-89
2022/10/05 10:44:26;;;;;;;4.57;2.90;;;18.20;99.80;;;;;;5018118;28;20037;-87
2022/10/05 10:47:07;;;;;;;4.97;3.08;;;18.30;99.90;;;;;;5017957;28;20018;-88
2022/10/05 10:49:51;;;;;;;4.65;2.72;;;18.30;99.70;;;;;;5018102;28;20030;-87
2022/10/05 10:52:30;;;;;;;4.97;2.67;;;18.30;99.90;;;;;;5016254;28;20159;-87
2022/10/05 10:54:55;;;;;;;8.25;3.10;;;18.40;99.90;;;;;;5018783;28;20100;-90
2022/10/05 10:57:32;;;;;;;6.05;2.60;;;18.50;99.90;;;;;;5016016;28;20038;-87
2022/10/05 11:03:39;;;;;;;4.93;2.60;;;18.50;99.50;;;;;;4970094;28;20398;-91
2022/10/05 11:13:25;;;;;;;6.93;2.40;;;18.60;99.30;;;;;;4996754;28;20041;-88
2022/10/05 11:16:06;;;;;;;4.43;2.38;;;18.60;99.00;;;;;;5016051;28;20058;-87
2022/10/05 11:19:02;;;;;;;3.88;2.30;;;18.60;99.00;;;;;;5016780;28;20095;-85
2022/10/05 11:22:09;;;;;;;3.90;2.17;;;18.60;99.00;;;;;;5016957;28;20025;-87
2022/10/05 11:24:53;;;;;;;4.53;2.58;;;18.70;99.00;;;;;;4982312;28;20045;-87
2022/10/05 11:27:27;;;;;;;4.18;2.20;;;18.70;98.70;;;;;;5017437;28;20030;-88
2022/10/05 11:30:05;;;;;;;5.10;2.30;;;18.70;98.70;;;;;;5016100;28;20022;-88
2022/10/05 11:33:01;;;;;;;4.93;2.40;;;18.70;98.80;;;;;;5016228;28;20040;-88
2022/10/05 11:35:35;;;;;;;4.30;2.00;;;18.80;98.50;;;;;;4999386;28;20028;-88
2022/10/05 11:38:30;;;;;;;5.53;2.45;;;18.80;98.70;;;;;;5016750;28;20087;-87
2022/10/05 11:41:11;;;;;;;6.00;2.10;;;18.80;98.90;;;;;;5015565;28;20077;-87
2022/10/05 11:43:52;;;;;;;6.13;2.20;;;18.90;98.80;;;;;;4999528;28;20080;-87
2022/10/05 11:46:36;;;;;;;7.28;2.30;;;18.90;98.80;;;;;;5016907;28;20033;-87
2022/10/05 11:49:14;;;;;;;4.78;2.00;;;18.90;98.60;;;;;;5015844;28;20065;-89
2022/10/05 11:52:06;;;;;;;6.13;2.05;;;18.90;98.50;;;;;;5015818;28;20068;-88
2022/10/05 11:54:58;;;;;;;7.20;2.45;;;18.90;98.30;;;;;;4991521;28;20437;-85
2022/10/05 11:57:36;;;;;;;3.85;2.17;;;19.00;98.10;;;;;;5016392;28;20122;-86
2022/10/05 12:00:11;;;;;;;3.28;2.00;;;19.00;98.40;;;;;;4998758;28;20117;-88
2022/10/05 12:02:40;;;;;;;4.43;2.45;;;19.00;98.30;;;;;;4999236;28;20021;-84
2022/10/05 12:05:32;;;;;;;5.90;2.03;;;19.10;98.50;;;;;;5029720;28;20467;-84
2022/10/05 12:08:45;;;;;;;3.88;2.10;;;19.10;98.40;;;;;;5014839;28;20097;-86
2022/10/05 12:11:36;;;;;;;3.88;2.00;;;19.10;98.10;;;;;;4974414;28;20117;-84
2022/10/05 12:14:33;;;;;;;7.65;2.00;;;19.20;97.90;;;;;;5002472;28;20105;-96
2022/10/05 12:17:20;;;;;;;4.18;1.98;;;19.30;98.50;;;;;;5003312;28;20023;-95
2022/10/05 12:20:15;;;;;;;4.97;2.13;;;19.30;98.30;;;;;;5001691;28;20026;-94
2022/10/05 12:22:48;;;;;;;4.22;1.92;;;19.40;97.60;;;;;;5033573;28;20463;-94
2022/10/05 12:25:22;;;;;;;4.65;1.92;;;19.50;97.80;;;;;;5034296;28;20023;-95
2022/10/05 12:27:57;;;;;;;4.80;2.28;;;19.50;97.50;;;;;;5029683;28;20026;-96
2022/10/05 12:30:50;;;;;;;3.88;1.75;;;19.60;97.70;;;;;;5002652;28;20084;-96
2022/10/05 12:33:34;;;;;;;6.40;1.92;;;19.60;97.90;;;;;;4998167;28;20106;-93
2022/10/05 12:36:09;;;;;;;4.78;1.70;;;19.70;97.40;;;;;;5001129;28;20027;-96
2022/10/05 12:38:47;;;;;;;6.22;2.17;;;19.70;97.40;;;;;;4997473;28;20046;-95
2022/10/05 12:41:39;;;;;;;5.57;1.90;;;19.80;97.60;;;;;;5029598;28;20085;-96
2022/10/05 12:44:35;;;;;;;5.28;2.20;;;19.80;97.50;;;;;;4996596;28;20030;-88
2022/10/05 12:47:25;;;;;;;5.13;2.33;;;19.90;97.60;;;;;;4995689;28;20026;-88
2022/10/05 12:50:12;;;;;;;5.60;1.90;;;20.00;97.10;;;;;;5027946;28;20084;-85
2022/10/05 12:52:54;;;;;;;5.93;2.25;;;20.00;97.00;;;;;;5026675;28;20030;-85
2022/10/05 12:55:30;;;;;;;6.30;2.08;;;20.00;97.10;;;;;;4995965;28;20050;-87
2022/10/05 12:58:01;;;;;;;2.58;1.60;;;20.10;96.80;;;;;;5026849;28;20187;-85
2022/10/05 13:00:30;;;;;;;4.97;1.98;;;20.20;97.10;;;;;;4995259;28;20019;-86
2022/10/05 13:03:07;;;;;;;5.38;2.13;;;20.20;97.00;;;;;;4993921;28;20061;-85
2022/10/05 13:05:55;;;;;;;3.78;1.80;;;20.20;97.10;;;;;;4995461;28;20374;-85
2022/10/05 13:08:44;;;;;;;5.03;1.80;;;20.30;97.20;;;;;;5002969;28;20397;-86
2022/10/05 13:11:36;;;;;;;2.33;1.50;;;20.40;97.20;;;;;;5014491;28;20025;-86
2022/10/05 13:14:02;;;;;;;6.57;2.50;;;20.40;97.00;;;;;;5009317;28;20092;-87
2022/10/05 13:16:44;;;;;;;3.35;1.80;;;20.50;96.90;;;;;;5013394;28;20026;-87
2022/10/05 13:19:32;;;;;;;5.32;2.00;;;20.50;96.70;;;;;;5013416;28;20121;-86
2022/10/05 13:22:16;;;;;;;3.22;1.40;;;20.50;96.60;;;;;;5014024;28;20026;-85
2022/10/05 13:25:07;;;;;;;3.05;1.73;;;20.50;96.70;;;;;;5014214;28;20160;-86
2022/10/05 13:27:41;;;;;;;4.97;1.98;;;20.60;96.70;;;;;;5014220;28;20169;-86
2022/10/05 13:30:17;;;;;;;3.80;1.70;;;20.60;96.70;;;;;;5014181;28;20021;-86
2022/10/05 13:33:16;;;;;;;3.72;1.55;;;20.60;96.80;;;;;;4996359;28;20604;-85
2022/10/05 13:35:51;;;;;;;2.88;1.63;;;20.60;96.90;;;;;;5014251;28;20022;-86
2022/10/05 13:38:33;;;;;;;3.55;1.40;;;20.70;96.80;;;;;;4996330;28;20553;-86
2022/10/05 13:41:16;;;;;;;4.45;2.13;;;20.70;96.70;;;;;;5012490;28;20054;-87
2022/10/05 13:43:50;;;;;;;3.67;1.65;;;20.70;96.60;;;;;;5013725;28;20034;-86
2022/10/05 13:46:32;;;;;;;3.20;1.48;;;20.80;96.50;;;;;;5013940;28;20088;-86
2022/10/05 13:49:11;;;;;;;5.05;1.98;;;20.80;96.50;;;;;;5012541;28;20026;-87
2022/10/05 13:51:50;;;;;;;4.65;1.55;;;20.80;96.40;;;;;;5013260;28;20026;-85
2022/10/05 13:54:28;;;;;;;4.05;1.90;;;20.90;95.90;;;;;;5014790;28;20032;-87
2022/10/05 13:57:06;;;;;;;4.50;1.58;;;20.90;96.10;;;;;;5000802;28;20026;-88
2022/10/05 13:59:50;;;;;;;3.45;1.60;;;20.90;96.00;;;;;;5018760;28;20025;-87
2022/10/05 14:02:21;;;;;;;5.07;1.65;;;20.90;95.60;;;;;;5015643;28;20065;-86
2022/10/05 14:04:57;;;;;;;5.53;1.50;;;21.00;95.60;;;;;;4999918;28;20105;-85
2022/10/05 14:07:30;;;;;;;5.10;1.50;;;21.00;95.20;;;;;;5015679;28;20027;-86
2022/10/05 14:09:58;;;;;;;2.42;1.10;;;21.10;95.10;;;;;;5014447;28;20022;-86
2022/10/05 14:12:27;;;;;;;5.70;1.55;;;21.10;95.10;;;;;;5012696;28;20359;-86
2022/10/05 14:14:56;;;;;;;4.35;1.48;;;21.10;95.10;;;;;;5014222;28;20542;-88